Time;durP1;ratioP1;P1;durP2;ratioP2;P2;SDS_P1;SDS_P2;PMS_P1;PMS_P2;Temp;Humidity;BMP_temperature;BMP_pressure;BME280_temperature;BME280_humidity;BME280_pressure;Samples;Min_cycle;Max_cycle;Signal;HPM_P1;HPM_P2
2023/07/20 00:01:33;;;;;;;9.53;6.50;;;;;;;;;;5018148;28;20481;-79
2023/07/20 00:04:01;;;;;;;11.17;7.03;;;;;;;;;;5018522;28;20462;-78
2023/07/20 00:06:28;;;;;;;9.50;7.50;;;;;;;;;;5018395;28;20451;-79
2023/07/20 00:08:55;;;;;;;8.43;6.70;;;;;;;;;;5018730;28;20964;-78
2023/07/20 00:11:27;;;;;;;11.00;7.30;;;;;;;;;;5019164;28;20478;-78
2023/07/20 00:13:55;;;;;;;13.47;7.63;;;;;;;;;;5018950;28;20808;-79
2023/07/20 00:16:22;;;;;;;10.03;7.60;;;;;;;;;;5017919;28;20486;-79
2023/07/20 00:18:49;;;;;;;14.17;8.00;;;;;;;;;;5018266;28;20447;-78
2023/07/20 00:21:17;;;;;;;8.13;7.30;;;;;;;;;;5017885;28;20459;-79
2023/07/20 00:23:44;;;;;;;12.50;7.10;;;;;;;;;;5017728;28;21021;-79
2023/07/20 00:26:11;;;;;;;10.40;6.80;;;;;;;;;;5017987;28;20461;-79
2023/07/20 00:28:39;;;;;;;13.73;8.70;;;;;;;;;;5017878;28;20454;-79
2023/07/20 00:31:06;;;;;;;8.43;7.57;;;;;;;;;;5017648;28;21007;-79
2023/07/20 00:33:34;;;;;;;16.20;8.13;;;;;;;;;;5017013;28;20533;-79
2023/07/20 00:36:02;;;;;;;8.80;7.53;;;;;;;;;;5016714;28;21014;-79
2023/07/20 00:38:29;;;;;;;15.83;8.27;;;;;;;;;;5017490;28;20494;-79
2023/07/20 00:40:56;;;;;;;13.43;8.20;;;;;;;;;;5017298;28;20971;-79
2023/07/20 00:43:23;;;;;;;10.90;7.57;;;;;;;;;;5017283;28;20465;-79
2023/07/20 00:45:51;;;;;;;13.10;8.90;;;;;;;;;;5017000;28;20453;-78
2023/07/20 00:48:19;;;;;;;11.77;8.40;;;;;;;;;;5017060;28;20465;-78
2023/07/20 00:50:48;;;;;;;12.43;7.73;;;;;;;;;;5017442;28;20478;-78
2023/07/20 00:53:15;;;;;;;9.00;7.60;;;;;;;;;;5017127;28;20970;-80
2023/07/20 00:55:42;;;;;;;12.37;8.17;;;;;;;;;;5016487;28;20453;-78
2023/07/20 00:58:10;;;;;;;9.73;7.57;;;;;;;;;;5016767;28;20928;-78
2023/07/20 01:00:37;;;;;;;9.47;7.70;;;;;;;;;;5017036;28;21007;-78
2023/07/20 01:03:05;;;;;;;14.10;7.80;;;;;;;;;;5017199;28;20470;-79
2023/07/20 01:05:37;;;;;;;12.10;9.03;;;;;;;;;;5017285;28;20459;-79
2023/07/20 01:08:09;;;;;;;10.50;7.20;;;;;;;;;;5016765;28;20469;-79
2023/07/20 01:10:40;;;;;;;11.93;7.53;;;;;;;;;;5016693;28;20560;-79
2023/07/20 01:13:08;;;;;;;9.00;7.43;;;;;;;;;;5017188;28;20810;-79
2023/07/20 01:15:35;;;;;;;11.90;6.90;;;;;;;;;;5016074;28;20800;-79
2023/07/20 01:18:04;;;;;;;12.90;8.10;;;;;;;;;;5016928;28;20475;-79
2023/07/20 01:20:33;;;;;;;9.67;7.30;;;;;;;;;;5016544;28;20920;-78
2023/07/20 01:23:09;;;;;;;8.93;6.93;;;;;;;;;;5016758;28;20458;-79
2023/07/20 01:25:45;;;;;;;12.70;7.90;;;;;;;;;;5017266;28;20474;-79
2023/07/20 01:28:30;;;;;;;9.23;6.77;;;;;;;;;;5016849;28;20439;-78
2023/07/20 01:31:00;;;;;;;7.63;6.83;;;;;;;;;;5017006;28;20471;-78
2023/07/20 01:33:29;;;;;;;13.27;7.17;;;;;;;;;;5017419;28;20880;-78
2023/07/20 01:35:58;;;;;;;16.07;8.70;;;;;;;;;;5016933;28;20540;-78
2023/07/20 01:38:25;;;;;;;17.03;7.07;;;;;;;;;;5016850;28;20454;-78
2023/07/20 01:40:53;;;;;;;11.07;7.80;;;;;;;;;;5016659;28;20474;-79
2023/07/20 01:43:20;;;;;;;11.23;7.33;;;;;;;;;;5016575;28;20477;-78
2023/07/20 01:45:47;;;;;;;10.77;7.23;;;;;;;;;;5016747;28;20966;-78
2023/07/20 01:48:14;;;;;;;10.63;7.30;;;;;;;;;;5017006;28;20466;-79
2023/07/20 01:50:43;;;;;;;7.73;6.60;;;;;;;;;;5016824;28;20483;-79
2023/07/20 01:53:10;;;;;;;11.60;7.73;;;;;;;;;;5016727;28;20962;-79
2023/07/20 01:55:37;;;;;;;9.33;6.63;;;;;;;;;;5016679;28;20446;-79
2023/07/20 01:58:05;;;;;;;9.40;7.27;;;;;;;;;;5016315;28;20482;-79
2023/07/20 02:00:33;;;;;;;6.83;6.03;;;;;;;;;;5016185;28;20494;-79
2023/07/20 02:03:00;;;;;;;8.30;6.90;;;;;;;;;;5015279;28;20451;-79
2023/07/20 02:05:27;;;;;;;8.30;6.60;;;;;;;;;;5016640;28;20451;-79
2023/07/20 02:07:55;;;;;;;10.97;6.13;;;;;;;;;;5016089;28;20458;-79
2023/07/20 02:10:22;;;;;;;7.23;6.33;;;;;;;;;;5016303;28;20459;-79
2023/07/20 02:12:49;;;;;;;8.27;6.40;;;;;;;;;;5016402;28;20439;-78
2023/07/20 02:15:18;;;;;;;7.43;5.90;;;;;;;;;;5016552;28;20469;-79
2023/07/20 02:17:45;;;;;;;14.00;7.63;;;;;;;;;;5016302;28;20493;-79
2023/07/20 02:20:12;;;;;;;7.90;6.90;;;;;;;;;;5016027;28;20459;-79
2023/07/20 02:22:40;;;;;;;7.67;6.33;;;;;;;;;;5016102;28;20956;-80
2023/07/20 02:25:09;;;;;;;8.33;6.10;;;;;;;;;;5015726;28;20454;-79
2023/07/20 02:27:36;;;;;;;11.13;7.17;;;;;;;;;;5016010;28;20546;-79
2023/07/20 02:30:04;;;;;;;10.10;7.33;;;;;;;;;;5015704;28;20451;-79
2023/07/20 02:32:31;;;;;;;16.63;6.80;;;;;;;;;;5015796;28;20486;-79
2023/07/20 02:34:58;;;;;;;7.40;6.70;;;;;;;;;;5016040;28;20856;-80
2023/07/20 02:37:25;;;;;;;9.80;6.33;;;;;;;;;;5015818;28;20832;-80
2023/07/20 02:39:52;;;;;;;8.33;6.30;;;;;;;;;;5014324;28;20466;-79
2023/07/20 02:42:22;;;;;;;8.80;6.73;;;;;;;;;;5015594;28;20478;-80
2023/07/20 02:44:50;;;;;;;8.60;6.33;;;;;;;;;;5015783;28;20459;-78
2023/07/20 02:47:17;;;;;;;8.90;7.00;;;;;;;;;;5015677;28;20459;-79
2023/07/20 02:49:44;;;;;;;12.67;6.90;;;;;;;;;;5015468;28;20471;-79
2023/07/20 02:52:11;;;;;;;10.97;6.00;;;;;;;;;;5015503;28;20481;-79
2023/07/20 02:54:38;;;;;;;11.43;6.80;;;;;;;;;;5015399;28;20462;-79
2023/07/20 02:57:05;;;;;;;13.37;7.33;;;;;;;;;;5015904;28;20509;-78
2023/07/20 02:59:34;;;;;;;10.40;6.30;;;;;;;;;;5015515;28;20443;-78
2023/07/20 03:02:01;;;;;;;7.77;6.20;;;;;;;;;;5015517;28;21071;-78
2023/07/20 03:04:28;;;;;;;6.83;6.13;;;;;;;;;;5015324;28;20454;-78
2023/07/20 03:06:55;;;;;;;9.17;6.20;;;;;;;;;;5015859;28;20447;-78
2023/07/20 03:09:23;;;;;;;6.63;5.77;;;;;;;;;;5015906;28;20473;-79
2023/07/20 03:11:51;;;;;;;8.50;6.73;;;;;;;;;;5015694;28;20474;-79
2023/07/20 03:14:18;;;;;;;10.03;5.67;;;;;;;;;;5015918;28;20966;-79
2023/07/20 03:16:47;;;;;;;11.73;6.00;;;;;;;;;;5015599;28;20475;-79
2023/07/20 03:19:14;;;;;;;8.37;6.40;;;;;;;;;;5018091;28;20454;-79
2023/07/20 03:21:41;;;;;;;9.93;6.70;;;;;;;;;;5018513;28;20463;-79
2023/07/20 03:24:09;;;;;;;8.20;5.83;;;;;;;;;;5019490;28;20466;-79
2023/07/20 03:26:36;;;;;;;7.20;5.93;;;;;;;;;;5019007;28;20485;-79
2023/07/20 03:29:04;;;;;;;7.40;5.17;;;;;;;;;;5019523;28;20461;-79
2023/07/20 03:31:31;;;;;;;11.43;5.57;;;;;;;;;;5019267;28;20997;-79
2023/07/20 03:33:59;;;;;;;30.50;6.37;;;;;;;;;;5019065;28;20442;-79
2023/07/20 03:36:27;;;;;;;11.73;5.90;;;;;;;;;;5019263;28;20463;-79
2023/07/20 03:38:54;;;;;;;11.03;5.80;;;;;;;;;;5018946;28;20435;-79
2023/07/20 03:41:21;;;;;;;13.93;5.63;;;;;;;;;;5018165;28;20463;-79
2023/07/20 03:43:48;;;;;;;9.07;6.60;;;;;;;;;;5018452;28;20460;-80
2023/07/20 03:46:15;;;;;;;9.93;5.53;;;;;;;;;;5018702;28;20457;-79
2023/07/20 03:48:43;;;;;;;9.67;5.70;;;;;;;;;;5018790;28;20973;-79
2023/07/20 03:51:11;;;;;;;7.13;5.97;;;;;;;;;;5018886;28;20475;-79
2023/07/20 03:53:38;;;;;;;8.80;7.60;;;;;;;;;;5017895;28;20473;-79
2023/07/20 03:56:05;;;;;;;6.80;5.20;;;;;;;;;;5017964;28;20458;-79
2023/07/20 03:58:33;;;;;;;6.20;4.97;;;;;;;;;;5017807;28;20489;-79
2023/07/20 04:01:00;;;;;;;8.50;5.80;;;;;;;;;;5017410;28;20481;-79
2023/07/20 04:03:27;;;;;;;10.60;6.80;;;;;;;;;;5017372;28;20455;-79
2023/07/20 04:05:55;;;;;;;9.23;5.03;;;;;;;;;;5016971;28;20451;-79
2023/07/20 04:08:25;;;;;;;8.50;4.80;;;;;;;;;;5017880;28;20476;-79
2023/07/20 04:10:52;;;;;;;8.53;6.17;;;;;;;;;;5017922;28;20532;-79
2023/07/20 04:13:19;;;;;;;10.47;5.03;;;;;;;;;;5017823;28;20955;-79
2023/07/20 04:15:46;;;;;;;5.83;5.23;;;;;;;;;;5018198;28;20881;-78
2023/07/20 04:18:13;;;;;;;8.20;6.00;;;;;;;;;;5018120;28;20483;-79
2023/07/20 04:20:40;;;;;;;6.40;5.20;;;;;;;;;;5018091;28;21010;-79
2023/07/20 04:23:08;;;;;;;6.90;4.63;;;;;;;;;;5017607;28;20494;-79
2023/07/20 04:25:38;;;;;;;8.87;5.37;;;;;;;;;;5018189;28;20823;-78
2023/07/20 04:28:08;;;;;;;5.93;5.33;;;;;;;;;;5017670;28;20550;-78
2023/07/20 04:30:36;;;;;;;10.93;6.50;;;;;;;;;;5016404;28;20529;-78
2023/07/20 04:33:03;;;;;;;7.30;6.07;;;;;;;;;;5017075;28;20451;-78
2023/07/20 04:35:50;;;;;;;11.10;7.07;;;;;;;;;;5016982;28;20943;-79
2023/07/20 04:38:18;;;;;;;10.20;6.73;;;;;;;;;;5016787;28;20478;-79
2023/07/20 04:40:47;;;;;;;10.43;6.07;;;;;;;;;;5018076;28;20498;-78
2023/07/20 04:43:14;;;;;;;9.70;5.90;;;;;;;;;;5016910;28;20455;-79
2023/07/20 04:45:41;;;;;;;7.53;6.20;;;;;;;;;;5017153;28;20486;-79
2023/07/20 04:48:11;;;;;;;7.30;5.60;;;;;;;;;;5016487;28;20839;-79
2023/07/20 04:50:38;;;;;;;7.03;5.53;;;;;;;;;;5016165;28;21033;-80
2023/07/20 04:53:05;;;;;;;7.47;6.10;;;;;;;;;;5016864;28;20455;-79
2023/07/20 04:55:33;;;;;;;6.73;5.57;;;;;;;;;;5017908;28;20509;-79
2023/07/20 04:58:02;;;;;;;9.83;5.90;;;;;;;;;;5017750;28;20541;-78
2023/07/20 05:00:29;;;;;;;7.70;5.80;;;;;;;;;;5015978;28;20517;-79
2023/07/20 05:02:56;;;;;;;6.20;5.33;;;;;;;;;;5016085;28;20459;-79
2023/07/20 05:05:23;;;;;;;6.80;5.13;;;;;;;;;;5015908;28;20462;-79
2023/07/20 05:07:50;;;;;;;9.80;5.20;;;;;;;;;;5016578;28;20969;-79
2023/07/20 05:10:18;;;;;;;8.57;6.10;;;;;;;;;;5016083;28;20454;-79
2023/07/20 05:12:45;;;;;;;11.13;5.67;;;;;;;;;;5016384;28;20822;-79
2023/07/20 05:15:13;;;;;;;16.07;6.47;;;;;;;;;;5017097;28;20462;-79
2023/07/20 05:17:40;;;;;;;7.27;4.57;;;;;;;;;;5015881;28;20499;-78
2023/07/20 05:20:10;;;;;;;6.20;4.33;;;;;;;;;;5016255;28;20514;-78
2023/07/20 05:22:39;;;;;;;5.97;4.93;;;;;;;;;;5015823;28;21067;-78
2023/07/20 05:25:07;;;;;;;5.27;4.50;;;;;;;;;;5015574;28;20458;-78
2023/07/20 05:27:34;;;;;;;9.47;4.90;;;;;;;;;;5015652;28;20454;-78
2023/07/20 05:30:01;;;;;;;8.40;5.00;;;;;;;;;;5015625;28;20455;-78
2023/07/20 05:32:29;;;;;;;7.50;5.07;;;;;;;;;;5016169;28;20479;-78
2023/07/20 05:34:56;;;;;;;5.90;5.30;;;;;;;;;;5016282;28;20903;-78
2023/07/20 05:37:23;;;;;;;8.20;4.33;;;;;;;;;;5015209;28;20502;-79
2023/07/20 05:39:51;;;;;;;8.43;3.63;;;;;;;;;;5014795;28;20470;-79
2023/07/20 05:42:18;;;;;;;6.90;4.37;;;;;;;;;;5015645;28;20475;-79
2023/07/20 05:44:47;;;;;;;6.50;4.67;;;;;;;;;;5015942;28;20461;-79
2023/07/20 05:47:14;;;;;;;5.87;3.67;;;;;;;;;;5016036;28;20890;-79
2023/07/20 05:49:42;;;;;;;4.30;3.43;;;;;;;;;;5015768;28;20463;-78
2023/07/20 05:52:09;;;;;;;6.00;3.77;;;;;;;;;;5015047;28;20487;-80
2023/07/20 05:54:37;;;;;;;7.90;3.60;;;;;;;;;;5015648;28;20928;-80
2023/07/20 05:57:04;;;;;;;5.80;4.03;;;;;;;;;;5015446;28;20454;-79
2023/07/20 05:59:31;;;;;;;6.70;3.87;;;;;;;;;;5016663;28;20447;-80
2023/07/20 06:01:58;;;;;;;7.40;4.30;;;;;;;;;;5015960;28;21023;-80
2023/07/20 06:04:25;;;;;;;6.43;5.83;;;;;;;;;;5015889;28;20462;-79
2023/07/20 06:06:54;;;;;;;10.50;5.50;;;;;;;;;;5016115;28;20820;-78
2023/07/20 06:09:21;;;;;;;6.23;4.70;;;;;;;;;;5015828;28;20817;-79
2023/07/20 06:11:48;;;;;;;5.00;4.10;;;;;;;;;;5015356;28;20486;-80
2023/07/20 06:14:16;;;;;;;8.53;4.10;;;;;;;;;;5015683;28;20517;-79
2023/07/20 06:16:43;;;;;;;13.87;4.40;;;;;;;;;;5015562;28;20467;-78
2023/07/20 06:19:12;;;;;;;6.00;4.30;;;;;;;;;;5015627;28;20505;-79
2023/07/20 06:21:39;;;;;;;6.90;4.17;;;;;;;;;;5015110;28;20479;-79
2023/07/20 06:24:07;;;;;;;6.20;4.10;;;;;;;;;;5014420;28;20466;-80
2023/07/20 06:26:38;;;;;;;6.27;4.83;;;;;;;;;;5015662;28;20442;-79
2023/07/20 06:29:05;;;;;;;6.13;3.97;;;;;;;;;;5016673;28;20475;-79
2023/07/20 06:31:33;;;;;;;6.87;3.60;;;;;;;;;;5015498;28;20528;-80
2023/07/20 06:34:00;;;;;;;5.97;4.40;;;;;;;;;;5015925;28;20633;-79
2023/07/20 06:36:28;;;;;;;6.00;4.00;;;;;;;;;;5014919;28;20459;-79
2023/07/20 06:38:55;;;;;;;9.40;5.27;;;;;;;;;;5014933;28;20486;-80
2023/07/20 06:41:23;;;;;;;12.10;4.87;;;;;;;;;;5014438;28;20501;-80
2023/07/20 06:43:52;;;;;;;10.00;4.03;;;;;;;;;;5014554;28;20451;-80
2023/07/20 06:46:19;;;;;;;6.20;4.17;;;;;;;;;;5014343;28;20978;-80
2023/07/20 06:48:46;;;;;;;3.90;3.50;;;;;;;;;;5015557;28;20443;-82
2023/07/20 06:51:13;;;;;;;7.93;3.67;;;;;;;;;;5014861;28;20486;-80
2023/07/20 06:53:40;;;;;;;7.97;4.40;;;;;;;;;;5018015;28;20963;-81
2023/07/20 06:56:07;;;;;;;6.43;3.90;;;;;;;;;;5019449;28;20463;-81
2023/07/20 06:58:36;;;;;;;5.77;3.03;;;;;;;;;;5017848;28;20524;-81
2023/07/20 07:01:06;;;;;;;5.70;3.77;;;;;;;;;;5018752;28;20478;-81
2023/07/20 07:03:33;;;;;;;6.67;3.20;;;;;;;;;;5019048;28;20552;-78
2023/07/20 07:06:00;;;;;;;6.10;3.17;;;;;;;;;;5019690;28;20521;-78
2023/07/20 07:08:28;;;;;;;4.03;2.50;;;;;;;;;;5019280;28;20450;-78
2023/07/20 07:10:55;;;;;;;7.67;3.20;;;;;;;;;;5019424;28;20999;-78
2023/07/20 07:13:22;;;;;;;4.37;3.00;;;;;;;;;;5020788;28;20459;-78
2023/07/20 07:15:51;;;;;;;4.87;3.00;;;;;;;;;;5020234;28;20537;-79
2023/07/20 07:18:20;;;;;;;6.70;2.97;;;;;;;;;;5019207;28;20494;-78
2023/07/20 07:20:57;;;;;;;3.50;2.90;;;;;;;;;;5019780;28;20474;-78
2023/07/20 07:23:24;;;;;;;2.87;2.10;;;;;;;;;;5019685;28;20466;-78
2023/07/20 07:25:51;;;;;;;7.53;2.60;;;;;;;;;;5019420;28;20466;-79
2023/07/20 07:28:18;;;;;;;3.30;2.77;;;;;;;;;;5019085;28;20605;-79
2023/07/20 07:30:45;;;;;;;3.00;2.47;;;;;;;;;;5019453;28;20528;-78
2023/07/20 07:33:14;;;;;;;2.97;2.40;;;;;;;;;;5020602;28;20461;-79
2023/07/20 07:35:41;;;;;;;10.53;4.10;;;;;;;;;;5020921;28;20462;-79
2023/07/20 07:38:08;;;;;;;4.53;2.53;;;;;;;;;;5019583;28;20486;-78
2023/07/20 07:40:35;;;;;;;8.00;2.20;;;;;;;;;;5018931;28;20790;-78
2023/07/20 07:43:03;;;;;;;3.23;2.63;;;;;;;;;;5019806;28;20458;-78
2023/07/20 07:45:30;;;;;;;2.97;2.47;;;;;;;;;;5021058;28;20481;-79
2023/07/20 07:47:57;;;;;;;4.60;2.33;;;;;;;;;;5018791;28;20458;-78
2023/07/20 07:50:27;;;;;;;4.20;2.70;;;;;;;;;;5019435;28;20992;-78
2023/07/20 07:52:54;;;;;;;4.27;2.70;;;;;;;;;;5019240;28;20467;-79
2023/07/20 07:55:21;;;;;;;3.10;2.23;;;;;;;;;;5018319;28;20944;-79
2023/07/20 07:57:48;;;;;;;7.63;2.83;;;;;;;;;;5018788;28;20462;-79
2023/07/20 08:00:18;;;;;;;4.27;2.17;;;;;;;;;;5018820;28;20466;-79
2023/07/20 08:05:50;;;;;;;4.10;2.33;;;;;;;;;;5018186;28;20397;-79
2023/07/20 08:08:17;;;;;;;5.63;2.70;;;;;;;;;;5018573;28;20451;-80
2023/07/20 08:10:44;;;;;;;3.07;2.27;;;;;;;;;;5018916;28;20478;-80
2023/07/20 08:13:39;;;;;;;5.20;2.53;;;;;;;;;;5018467;28;20439;-80
2023/07/20 08:16:06;;;;;;;5.10;2.40;;;;;;;;;;5018112;28;20526;-80
2023/07/20 08:18:34;;;;;;;6.60;3.30;;;;;;;;;;5018083;28;20490;-81
2023/07/20 08:21:02;;;;;;;5.83;3.00;;;;;;;;;;5018021;28;20475;-80
2023/07/20 08:23:30;;;;;;;3.60;3.10;;;;;;;;;;5018105;28;20470;-79
2023/07/20 08:25:57;;;;;;;6.30;3.83;;;;;;;;;;5018526;28;20462;-79
2023/07/20 08:28:24;;;;;;;5.93;3.53;;;;;;;;;;5018249;28;20455;-79
2023/07/20 08:30:51;;;;;;;7.37;3.40;;;;;;;;;;5019129;28;20526;-80
2023/07/20 08:33:20;;;;;;;3.70;2.70;;;;;;;;;;5017922;28;20459;-80
2023/07/20 08:35:47;;;;;;;4.20;2.57;;;;;;;;;;5019032;28;20480;-81
2023/07/20 08:38:15;;;;;;;7.17;3.23;;;;;;;;;;5018010;28;21050;-82
2023/07/20 08:40:43;;;;;;;2.50;2.30;;;;;;;;;;5018779;28;20486;-82
2023/07/20 08:43:12;;;;;;;6.30;2.73;;;;;;;;;;5016425;28;20467;-81
2023/07/20 08:45:40;;;;;;;3.33;2.27;;;;;;;;;;5017562;28;20497;-81
2023/07/20 08:48:07;;;;;;;4.83;2.47;;;;;;;;;;5017420;28;20769;-80
2023/07/20 08:50:35;;;;;;;9.60;2.40;;;;;;;;;;5016884;28;20482;-80
2023/07/20 08:53:03;;;;;;;5.07;2.30;;;;;;;;;;5016386;28;20451;-80
2023/07/20 08:55:32;;;;;;;2.73;2.10;;;;;;;;;;5015775;28;20473;-81
2023/07/20 08:58:00;;;;;;;2.90;2.50;;;;;;;;;;5016102;28;20451;-79
2023/07/20 09:00:29;;;;;;;4.33;2.57;;;;;;;;;;5015936;28;20458;-80
2023/07/20 09:02:56;;;;;;;3.37;2.30;;;;;;;;;;5016460;28;20539;-81
2023/07/20 09:05:24;;;;;;;3.77;2.13;;;;;;;;;;5016379;28;20553;-80
2023/07/20 09:07:52;;;;;;;3.10;2.10;;;;;;;;;;5015915;28;20803;-80
2023/07/20 09:10:19;;;;;;;8.30;2.80;;;;;;;;;;5016361;28;20470;-80
2023/07/20 09:12:48;;;;;;;4.57;2.40;;;;;;;;;;5016641;28;20992;-79
2023/07/20 09:15:16;;;;;;;3.17;2.10;;;;;;;;;;5015577;28;20459;-80
2023/07/20 09:17:47;;;;;;;4.67;2.60;;;;;;;;;;5017469;28;20459;-80
2023/07/20 09:20:16;;;;;;;5.00;2.40;;;;;;;;;;5018431;28;20486;-80
2023/07/20 09:22:43;;;;;;;4.77;2.77;;;;;;;;;;5017498;28;20455;-80
2023/07/20 09:25:12;;;;;;;4.87;2.80;;;;;;;;;;5017953;28;20856;-80
2023/07/20 09:27:40;;;;;;;3.40;2.40;;;;;;;;;;5018046;28;20490;-80
2023/07/20 09:30:11;;;;;;;3.20;2.00;;;;;;;;;;5017753;28;20443;-80
2023/07/20 09:32:43;;;;;;;5.40;2.63;;;;;;;;;;5018092;28;20455;-79
2023/07/20 09:35:14;;;;;;;3.33;2.07;;;;;;;;;;5018846;28;20534;-80
2023/07/20 09:37:41;;;;;;;4.13;2.20;;;;;;;;;;5018749;28;20446;-80
2023/07/20 09:40:09;;;;;;;3.00;2.60;;;;;;;;;;5018604;28;20497;-81
2023/07/20 09:42:38;;;;;;;3.23;2.23;;;;;;;;;;5017460;28;20455;-80
2023/07/20 09:45:10;;;;;;;2.90;2.20;;;;;;;;;;5018104;28;20451;-81
2023/07/20 09:47:38;;;;;;;5.20;2.80;;;;;;;;;;5017791;28;21035;-80
2023/07/20 09:50:10;;;;;;;4.43;2.60;;;;;;;;;;5016481;28;20514;-80
2023/07/20 09:52:37;;;;;;;2.43;2.10;;;;;;;;;;5015752;28;20439;-80
2023/07/20 09:55:05;;;;;;;4.10;2.40;;;;;;;;;;5015348;28;20458;-80
2023/07/20 09:57:33;;;;;;;2.93;2.10;;;;;;;;;;5015288;28;20939;-80
2023/07/20 10:00:01;;;;;;;2.90;2.23;;;;;;;;;;5013216;28;20509;-81
2023/07/20 10:02:34;;;;;;;4.60;2.20;;;;;;;;;;5013301;28;20514;-81
2023/07/20 10:05:03;;;;;;;4.20;2.57;;;;;;;;;;5013351;28;20462;-81
2023/07/20 10:07:31;;;;;;;4.50;2.90;;;;;;;;;;5014162;28;20485;-81
2023/07/20 10:10:01;;;;;;;4.47;2.70;;;;;;;;;;5013547;28;20455;-81
2023/07/20 10:12:29;;;;;;;3.33;2.80;;;;;;;;;;5013530;28;20463;-81
2023/07/20 10:15:01;;;;;;;5.77;2.73;;;;;;;;;;5012824;28;20463;-81
2023/07/20 10:17:29;;;;;;;2.87;2.40;;;;;;;;;;5013291;28;20469;-81
2023/07/20 10:19:59;;;;;;;5.50;3.27;;;;;;;;;;5013278;28;20498;-81
2023/07/20 10:22:27;;;;;;;7.93;2.63;;;;;;;;;;5012798;28;20475;-80
2023/07/20 10:24:58;;;;;;;2.70;2.40;;;;;;;;;;5012912;28;20952;-81
2023/07/20 10:27:25;;;;;;;3.03;2.30;;;;;;;;;;5013032;28;20470;-81
2023/07/20 10:29:53;;;;;;;4.93;2.50;;;;;;;;;;5012368;28;20463;-81
2023/07/20 10:32:21;;;;;;;2.90;2.47;;;;;;;;;;5012489;28;20887;-81
2023/07/20 10:34:53;;;;;;;3.63;2.27;;;;;;;;;;5012559;28;20550;-81
2023/07/20 10:37:48;;;;;;;3.70;2.60;;;;;;;;;;5012192;28;20435;-81
2023/07/20 10:40:28;;;;;;;4.37;2.00;;;;;;;;;;5012622;28;20852;-81
2023/07/20 10:42:58;;;;;;;4.20;2.97;;;;;;;;;;5012532;28;20455;-80
2023/07/20 10:45:34;;;;;;;2.83;2.20;;;;;;;;;;5012855;28;20458;-80
2023/07/20 10:48:04;;;;;;;4.40;2.23;;;;;;;;;;5012028;28;20445;-81
2023/07/20 10:50:33;;;;;;;2.47;2.27;;;;;;;;;;5012679;28;21010;-81
2023/07/20 10:53:11;;;;;;;3.20;2.37;;;;;;;;;;5012477;28;20835;-82
2023/07/20 10:55:38;;;;;;;4.00;2.80;;;;;;;;;;5013540;28;20497;-81
2023/07/20 10:58:09;;;;;;;3.93;2.63;;;;;;;;;;5013208;28;20554;-81
2023/07/20 11:00:36;;;;;;;2.33;1.97;;;;;;;;;;5012920;28;20490;-81
2023/07/20 11:03:04;;;;;;;3.97;2.03;;;;;;;;;;5015152;28;20465;-82
2023/07/20 11:05:40;;;;;;;7.47;2.10;;;;;;;;;;5013907;28;20710;-81
2023/07/20 11:08:11;;;;;;;6.03;2.00;;;;;;;;;;5013513;28;20501;-82
2023/07/20 11:10:38;;;;;;;6.70;2.10;;;;;;;;;;5015014;28;20481;-81
2023/07/20 11:13:18;;;;;;;2.70;2.13;;;;;;;;;;5014090;28;20465;-81
2023/07/20 11:15:48;;;;;;;3.67;2.00;;;;;;;;;;5014716;28;20530;-81
2023/07/20 11:18:15;;;;;;;4.20;1.97;;;;;;;;;;5013435;28;20450;-80
2023/07/20 11:20:44;;;;;;;3.30;2.37;;;;;;;;;;5013537;28;20498;-81
2023/07/20 11:23:11;;;;;;;5.10;2.50;;;;;;;;;;5014810;28;20470;-80
2023/07/20 11:25:39;;;;;;;3.83;2.50;;;;;;;;;;5015634;28;20469;-81
2023/07/20 11:28:09;;;;;;;3.17;2.00;;;;;;;;;;5013286;28;20566;-80
2023/07/20 11:30:36;;;;;;;2.43;1.93;;;;;;;;;;5014212;28;20481;-81
2023/07/20 11:33:03;;;;;;;2.50;2.30;;;;;;;;;;5014472;28;20470;-81
2023/07/20 11:35:30;;;;;;;3.27;2.57;;;;;;;;;;5014562;28;20505;-81
2023/07/20 11:37:59;;;;;;;2.90;1.80;;;;;;;;;;5014113;28;20457;-81
2023/07/20 11:40:26;;;;;;;3.40;2.10;;;;;;;;;;5017051;28;20939;-81
2023/07/20 11:42:55;;;;;;;2.80;2.13;;;;;;;;;;5017184;28;20450;-80
2023/07/20 11:45:22;;;;;;;3.83;1.90;;;;;;;;;;5018409;28;20463;-83
2023/07/20 11:47:49;;;;;;;3.07;2.10;;;;;;;;;;5019328;28;21010;-81
2023/07/20 11:50:17;;;;;;;3.63;2.30;;;;;;;;;;5018194;28;20458;-82
2023/07/20 11:52:44;;;;;;;4.90;2.40;;;;;;;;;;5019380;28;20553;-82
2023/07/20 11:55:13;;;;;;;3.20;2.90;;;;;;;;;;5019428;28;20521;-82
2023/07/20 11:57:40;;;;;;;4.67;2.00;;;;;;;;;;5018041;28;20955;-82
2023/07/20 12:00:11;;;;;;;2.40;2.10;;;;;;;;;;5017629;28;21094;-83
2023/07/20 12:02:40;;;;;;;2.30;1.80;;;;;;;;;;5018110;28;20494;-82
2023/07/20 12:05:08;;;;;;;5.03;2.27;;;;;;;;;;5018219;28;20539;-83
2023/07/20 12:07:38;;;;;;;2.20;1.80;;;;;;;;;;5017928;28;20458;-82
2023/07/20 12:10:06;;;;;;;2.20;2.00;;;;;;;;;;5018161;28;20459;-81
2023/07/20 12:12:34;;;;;;;1.87;1.67;;;;;;;;;;5018169;28;20979;-81
2023/07/20 12:15:18;;;;;;;6.10;2.03;;;;;;;;;;5018457;28;20541;-82
2023/07/20 12:17:45;;;;;;;3.50;2.10;;;;;;;;;;5019612;28;20473;-82
2023/07/20 12:20:13;;;;;;;3.60;2.17;;;;;;;;;;5019164;28;20573;-81
2023/07/20 12:22:41;;;;;;;2.47;1.90;;;;;;;;;;5019077;28;20784;-81
2023/07/20 12:25:09;;;;;;;2.80;2.13;;;;;;;;;;5017808;28;20940;-82
2023/07/20 12:27:38;;;;;;;6.10;2.40;;;;;;;;;;5016742;28;20450;-82
2023/07/20 12:30:06;;;;;;;6.67;2.23;;;;;;;;;;5017308;28;20474;-81
2023/07/20 12:32:34;;;;;;;3.20;2.33;;;;;;;;;;5016338;28;20495;-82
2023/07/20 12:35:02;;;;;;;5.17;3.20;;;;;;;;;;5017582;28;20471;-83
2023/07/20 12:37:29;;;;;;;5.93;2.07;;;;;;;;;;5016857;28;20451;-82
2023/07/20 12:39:56;;;;;;;3.10;2.70;;;;;;;;;;5016493;28;20487;-82
2023/07/20 12:42:23;;;;;;;2.87;2.17;;;;;;;;;;5017800;28;20485;-82
2023/07/20 12:44:52;;;;;;;3.13;2.37;;;;;;;;;;5018503;28;20555;-83
2023/07/20 12:47:19;;;;;;;3.93;2.20;;;;;;;;;;5017463;28;20477;-82
2023/07/20 12:49:46;;;;;;;5.50;2.70;;;;;;;;;;5016416;28;20451;-83
2023/07/20 12:52:14;;;;;;;3.33;2.20;;;;;;;;;;5017509;28;20471;-82
2023/07/20 12:54:41;;;;;;;2.60;2.33;;;;;;;;;;5015426;28;20798;-81
2023/07/20 12:57:08;;;;;;;8.33;2.47;;;;;;;;;;5015431;28;20471;-81
2023/07/20 12:59:35;;;;;;;3.43;1.97;;;;;;;;;;5016151;28;20577;-82
2023/07/20 13:02:04;;;;;;;2.70;2.30;;;;;;;;;;5016217;28;20482;-82
2023/07/20 13:04:31;;;;;;;3.90;3.00;;;;;;;;;;5017022;28;20526;-81
2023/07/20 13:06:59;;;;;;;4.17;2.10;;;;;;;;;;5017256;28;20461;-82
2023/07/20 13:09:26;;;;;;;3.60;2.30;;;;;;;;;;5016819;28;20802;-82
2023/07/20 13:11:53;;;;;;;2.77;2.57;;;;;;;;;;5016945;28;20482;-81
2023/07/20 13:14:21;;;;;;;2.83;2.30;;;;;;;;;;5016113;28;20454;-82
2023/07/20 13:16:48;;;;;;;3.43;2.10;;;;;;;;;;5014211;28;20891;-81
2023/07/20 13:19:16;;;;;;;4.43;2.63;;;;;;;;;;5006949;28;20452;-82
2023/07/20 13:21:44;;;;;;;7.57;2.67;;;;;;;;;;5010482;28;20487;-81
2023/07/20 13:24:11;;;;;;;2.43;2.17;;;;;;;;;;4978494;28;1072623;-83
2023/07/20 13:26:38;;;;;;;2.60;2.17;;;;;;;;;;5016500;28;20294;-82
2023/07/20 13:29:05;;;;;;;6.70;2.53;;;;;;;;;;5016822;28;20785;-82
2023/07/20 13:31:32;;;;;;;17.10;2.70;;;;;;;;;;5016753;28;20992;-81
2023/07/20 13:34:00;;;;;;;3.10;2.40;;;;;;;;;;5016205;28;20549;-82
2023/07/20 13:36:28;;;;;;;4.50;2.27;;;;;;;;;;5016539;28;20455;-82
2023/07/20 13:38:55;;;;;;;3.50;2.00;;;;;;;;;;5015294;28;20453;-82
2023/07/20 13:41:22;;;;;;;3.73;2.50;;;;;;;;;;5015018;28;20498;-81
2023/07/20 13:43:49;;;;;;;3.17;1.93;;;;;;;;;;5015641;28;20522;-82
2023/07/20 13:46:17;;;;;;;8.03;2.30;;;;;;;;;;5016899;28;20514;-83
2023/07/20 13:48:44;;;;;;;2.90;2.17;;;;;;;;;;5016705;28;20521;-82
2023/07/20 13:51:11;;;;;;;3.23;2.87;;;;;;;;;;5025153;28;20525;-82
2023/07/20 13:53:40;;;;;;;3.33;2.20;;;;;;;;;;5037281;28;20532;-83
2023/07/20 13:56:07;;;;;;;3.77;2.87;;;;;;;;;;5036664;28;20931;-82
2023/07/20 13:58:34;;;;;;;6.70;3.03;;;;;;;;;;5037063;28;20434;-80
2023/07/20 14:01:01;;;;;;;2.93;1.90;;;;;;;;;;5036038;28;20916;-81
2023/07/20 14:03:29;;;;;;;3.60;2.57;;;;;;;;;;5037052;28;20485;-81
2023/07/20 14:05:56;;;;;;;4.30;2.63;;;;;;;;;;5036887;28;20458;-80
2023/07/20 14:08:23;;;;;;;3.73;2.60;;;;;;;;;;5036418;28;20472;-81
2023/07/20 14:10:53;;;;;;;9.83;2.80;;;;;;;;;;5036540;28;20470;-80
2023/07/20 14:13:20;;;;;;;3.50;2.53;;;;;;;;;;5037111;28;20496;-81
2023/07/20 14:15:47;;;;;;;3.33;2.30;;;;;;;;;;5035934;28;20556;-80
2023/07/20 14:18:14;;;;;;;2.50;2.30;;;;;;;;;;5036502;28;20877;-80
2023/07/20 14:20:41;;;;;;;4.30;2.17;;;;;;;;;;5036777;28;20565;-81
2023/07/20 14:23:09;;;;;;;2.47;2.17;;;;;;;;;;5036016;28;20469;-81
2023/07/20 14:25:36;;;;;;;8.70;4.27;;;;;;;;;;5037037;28;20477;-81
2023/07/20 14:28:05;;;;;;;5.77;2.70;;;;;;;;;;5037022;28;20793;-81
2023/07/20 14:30:32;;;;;;;2.87;2.17;;;;;;;;;;5034426;28;20498;-81
2023/07/20 14:32:59;;;;;;;2.90;2.67;;;;;;;;;;5036330;28;20464;-81
2023/07/20 14:35:26;;;;;;;9.40;1.90;;;;;;;;;;5035742;28;20458;-81
2023/07/20 14:37:53;;;;;;;2.83;2.53;;;;;;;;;;5036092;28;20876;-81
2023/07/20 14:40:20;;;;;;;7.13;2.87;;;;;;;;;;5036474;28;20485;-81
2023/07/20 14:42:48;;;;;;;3.53;2.07;;;;;;;;;;5036334;28;20489;-81
2023/07/20 14:45:16;;;;;;;6.90;3.70;;;;;;;;;;5035369;28;20461;-80
2023/07/20 14:47:43;;;;;;;4.87;3.67;;;;;;;;;;5036003;28;20984;-81
2023/07/20 14:50:11;;;;;;;5.03;2.30;;;;;;;;;;5034937;28;20532;-81